Time;durP1;ratioP1;P1;durP2;ratioP2;P2;SDS_P1;SDS_P2;PMS_P1;PMS_P2;Temp;Humidity;BMP_temperature;BMP_pressure;BME280_temperature;BME280_humidity;BME280_pressure;Samples;Min_cycle;Max_cycle;Signal;HPM_P1;HPM_P2
2023/05/24 00:01:27;;;;;;;4.63;1.55;;;;;;;9.25;100.00;101898.16;5043888;28;20432;-57
2023/05/24 00:03:53;;;;;;;5.50;1.67;;;;;;;9.16;100.00;101905.16;5040892;28;20116;-55
2023/05/24 00:06:19;;;;;;;3.50;1.20;;;;;;;9.06;100.00;101893.78;5043583;28;20086;-55
2023/05/24 00:08:45;;;;;;;4.95;1.20;;;;;;;9.08;100.00;101881.25;5042040;28;20059;-52
2023/05/24 00:11:11;;;;;;;3.05;0.50;;;;;;;9.11;100.00;101891.53;5044284;28;20094;-55
2023/05/24 00:13:37;;;;;;;3.53;1.48;;;;;;;9.04;100.00;101898.41;5042172;28;20053;-57
2023/05/24 00:16:02;;;;;;;2.42;1.25;;;;;;;9.00;100.00;101894.38;5044175;28;20037;-56
2023/05/24 00:18:30;;;;;;;8.63;1.40;;;;;;;8.95;100.00;101895.63;5045238;28;20107;-53
2023/05/24 00:20:58;;;;;;;5.22;1.30;;;;;;;8.90;100.00;101895.25;5044841;28;20033;-54
2023/05/24 00:23:24;;;;;;;3.70;1.13;;;;;;;8.81;100.00;101896.13;5042757;28;20389;-55
2023/05/24 00:25:51;;;;;;;4.47;1.35;;;;;;;8.81;100.00;101892.66;5045964;28;20033;-56
2023/05/24 00:28:16;;;;;;;2.28;0.70;;;;;;;8.80;100.00;101904.19;5042092;28;20079;-52
2023/05/24 00:30:41;;;;;;;2.95;1.20;;;;;;;8.71;100.00;101908.53;5043774;28;20477;-55
2023/05/24 00:33:07;;;;;;;1.67;0.63;;;;;;;8.66;100.00;101919.53;5042166;28;20041;-53
2023/05/24 00:35:32;;;;;;;5.22;1.40;;;;;;;8.64;100.00;101915.38;5043603;28;20484;-52
2023/05/24 00:37:57;;;;;;;4.63;1.15;;;;;;;8.70;100.00;101902.44;5045731;28;20366;-54
2023/05/24 00:40:23;;;;;;;4.72;1.42;;;;;;;8.70;100.00;101902.44;5038886;28;20384;-51
2023/05/24 00:42:49;;;;;;;1.75;1.38;;;;;;;8.70;100.00;101898.97;5038626;28;20473;-51
2023/05/24 00:45:14;;;;;;;5.03;1.83;;;;;;;8.68;100.00;101895.63;5040936;28;20029;-56
2023/05/24 00:47:40;;;;;;;1.85;0.98;;;;;;;8.58;100.00;101892.16;5041721;28;20031;-56
2023/05/24 00:50:08;;;;;;;3.65;1.67;;;;;;;8.51;100.00;101894.53;5041503;28;20106;-55
2023/05/24 00:52:35;;;;;;;4.22;1.52;;;;;;;8.44;100.00;101899.56;5040419;28;20037;-57
2023/05/24 00:55:00;;;;;;;1.77;0.52;;;;;;;8.39;100.00;101888.59;5042165;28;20025;-55
2023/05/24 00:57:26;;;;;;;1.13;1.02;;;;;;;8.28;100.00;101886.88;5043136;28;20056;-56
2023/05/24 00:59:51;;;;;;;4.32;1.05;;;;;;;8.22;100.00;101899.84;5040538;28;20056;-55
2023/05/24 01:02:17;;;;;;;2.60;1.45;;;;;;;8.19;100.00;101894.84;5042064;28;20031;-53
2023/05/24 01:04:43;;;;;;;1.88;1.13;;;;;;;8.23;100.00;101901.50;5040844;28;20397;-54
2023/05/24 01:07:28;;;;;;;1.88;1.40;;;;;;;8.20;100.00;101899.16;5042877;28;20033;-54
2023/05/24 01:10:27;;;;;;;3.53;1.50;;;;;;;8.24;100.00;101892.63;5038349;28;20039;-56
2023/05/24 01:13:17;;;;;;;2.83;1.83;;;;;;;8.28;100.00;101899.28;5043256;28;20342;-55
2023/05/24 01:16:09;;;;;;;1.70;0.63;;;;;;;8.30;100.00;101894.69;5043318;28;20045;-56
2023/05/24 01:18:40;;;;;;;1.75;1.38;;;;;;;8.28;100.00;101891.34;5041057;28;20961;-52
2023/05/24 01:21:08;;;;;;;2.80;1.35;;;;;;;8.25;100.00;101881.91;5041132;28;20098;-55
2023/05/24 01:23:55;;;;;;;3.30;1.65;;;;;;;8.20;100.00;101889.41;5042125;28;20035;-55
2023/05/24 01:26:44;;;;;;;2.92;1.80;;;;;;;8.07;100.00;101886.22;5041617;28;20025;-56
2023/05/24 01:29:12;;;;;;;1.27;1.15;;;;;;;8.07;100.00;101880.94;5043531;28;20039;-54
2023/05/24 01:31:37;;;;;;;2.30;0.90;;;;;;;8.04;100.00;101881.22;5041714;28;20033;-54
2023/05/24 01:34:03;;;;;;;5.50;0.90;;;;;;;8.00;100.00;101879.84;5036927;28;20044;-56
2023/05/24 01:36:28;;;;;;;6.88;1.50;;;;;;;7.93;100.00;101876.94;5042096;28;20035;-55
2023/05/24 01:38:53;;;;;;;2.00;1.50;;;;;;;7.90;100.00;101876.34;5038955;28;20025;-55
2023/05/24 01:41:37;;;;;;;1.60;0.80;;;;;;;7.88;100.00;101876.50;5037534;28;20029;-54
2023/05/24 01:44:21;;;;;;;2.85;1.25;;;;;;;7.84;100.00;101873.31;5041988;28;21043;-55
2023/05/24 01:46:52;;;;;;;3.85;0.85;;;;;;;7.82;100.00;101879.69;5038583;28;20021;-54
2023/05/24 01:49:25;;;;;;;0.57;0.57;;;;;;;7.80;100.00;101881.66;5044750;28;20040;-56
2023/05/24 01:52:10;;;;;;;2.53;1.20;;;;;;;7.68;100.00;101885.41;5038808;28;20450;-55
2023/05/24 01:54:39;;;;;;;4.03;0.77;;;;;;;7.52;100.00;101873.56;5037868;28;20027;-55
2023/05/24 01:57:07;;;;;;;2.35;1.20;;;;;;;7.37;100.00;101882.84;5037809;28;20086;-55
2023/05/24 01:59:34;;;;;;;9.20;1.23;;;;;;;7.41;100.00;101881.63;5041373;28;20083;-56
2023/05/24 02:02:00;;;;;;;1.40;0.82;;;;;;;7.49;100.00;101886.22;5039190;28;20094;-55
2023/05/24 02:04:25;;;;;;;1.85;1.00;;;;;;;7.52;100.00;101878.84;5036639;28;21256;-55
2023/05/24 02:06:50;;;;;;;1.63;1.00;;;;;;;7.46;100.00;101882.03;5044813;28;20070;-53
2023/05/24 02:09:16;;;;;;;1.02;0.75;;;;;;;7.44;100.00;101883.97;5037900;28;20033;-55
2023/05/24 02:11:41;;;;;;;2.15;1.38;;;;;;;7.40;100.00;101872.00;5043915;28;20068;-55
2023/05/24 02:14:06;;;;;;;0.93;0.45;;;;;;;7.39;100.00;101871.19;5039796;28;20393;-56
2023/05/24 02:16:32;;;;;;;1.80;1.40;;;;;;;7.39;100.00;101865.09;5039167;28;20385;-52
2023/05/24 02:18:57;;;;;;;5.05;2.38;;;;;;;7.43;100.00;101869.97;5040734;28;20037;-53
2023/05/24 02:21:24;;;;;;;1.85;1.08;;;;;;;7.44;100.00;101865.50;5042326;28;20416;-56
2023/05/24 02:23:49;;;;;;;1.67;0.85;;;;;;;7.45;100.00;101876.88;5036954;28;20492;-52
2023/05/24 02:26:16;;;;;;;5.03;1.77;;;;;;;7.43;100.00;101869.09;5037255;28;20033;-52
2023/05/24 02:28:42;;;;;;;1.30;0.77;;;;;;;7.40;100.00;101870.19;5033116;28;20037;-53
2023/05/24 02:31:07;;;;;;;3.78;0.95;;;;;;;7.33;100.00;101863.81;5033332;28;20086;-54
2023/05/24 02:33:34;;;;;;;1.48;0.85;;;;;;;7.29;100.00;101865.06;5033267;28;20075;-52
2023/05/24 02:36:00;;;;;;;3.20;1.60;;;;;;;7.26;100.00;101867.16;5034469;28;20541;-53
2023/05/24 02:38:25;;;;;;;2.25;0.63;;;;;;;7.22;100.00;101861.28;5037440;28;20087;-53
2023/05/24 02:40:50;;;;;;;1.75;0.82;;;;;;;7.15;100.00;101868.91;5038383;28;20369;-53
2023/05/24 02:43:16;;;;;;;2.40;0.95;;;;;;;7.12;100.00;101874.44;5021423;28;20045;-56
2023/05/24 02:45:41;;;;;;;2.72;1.25;;;;;;;7.14;100.00;101872.50;5034590;28;20437;-55
2023/05/24 02:48:06;;;;;;;0.88;0.65;;;;;;;7.11;100.00;101867.50;5038723;28;20079;-52
2023/05/24 02:50:32;;;;;;;2.30;0.68;;;;;;;7.03;100.00;101869.16;5033653;28;20338;-54
2023/05/24 02:52:57;;;;;;;1.95;0.88;;;;;;;6.94;100.00;101870.78;5034005;28;20037;-52
2023/05/24 02:55:22;;;;;;;5.35;1.08;;;;;;;6.89;100.00;101862.44;5034646;28;20708;-53
2023/05/24 02:57:48;;;;;;;1.75;0.82;;;;;;;6.88;100.00;101866.88;5038717;28;20469;-55
2023/05/24 03:00:14;;;;;;;2.35;0.55;;;;;;;6.80;100.00;101868.50;5034324;28;20052;-57
2023/05/24 03:02:40;;;;;;;6.18;1.50;;;;;;;6.68;100.00;101868.59;5040070;28;20302;-53
2023/05/24 03:05:06;;;;;;;2.42;0.70;;;;;;;6.63;100.00;101869.94;5033172;28;20037;-52
2023/05/24 03:07:32;;;;;;;3.00;1.02;;;;;;;6.53;100.00;101862.84;5034966;28;20124;-55
2023/05/24 03:09:57;;;;;;;1.30;0.70;;;;;;;6.46;100.00;101861.69;5036207;28;20111;-54
2023/05/24 03:12:22;;;;;;;4.72;1.00;;;;;;;6.41;100.00;101866.50;5035423;28;20469;-52
2023/05/24 03:14:48;;;;;;;3.38;0.77;;;;;;;6.40;100.00;101871.91;5031475;28;20335;-50
2023/05/24 03:17:13;;;;;;;6.45;1.30;;;;;;;6.37;100.00;101877.44;5035529;28;20116;-57
2023/05/24 03:19:38;;;;;;;2.63;1.20;;;;;;;6.38;100.00;101877.31;5041858;28;20041;-52
2023/05/24 03:22:03;;;;;;;0.80;0.60;;;;;;;6.43;100.00;101876.91;5020822;28;20029;-53
2023/05/24 03:24:29;;;;;;;6.35;1.30;;;;;;;6.43;100.00;101869.84;5040345;28;20515;-51
2023/05/24 03:26:54;;;;;;;1.02;0.95;;;;;;;6.42;100.00;101875.25;5039769;28;20532;-50
2023/05/24 03:29:19;;;;;;;3.03;1.85;;;;;;;6.44;100.00;101873.31;5041518;28;20040;-53
2023/05/24 03:31:45;;;;;;;1.52;0.52;;;;;;;6.45;100.00;101872.34;5039640;28;20033;-52
2023/05/24 03:34:10;;;;;;;3.03;0.93;;;;;;;6.46;100.00;101881.94;5039061;28;20459;-55
2023/05/24 03:36:35;;;;;;;5.35;0.90;;;;;;;6.44;100.00;101882.06;5040373;28;20147;-53
2023/05/24 03:39:03;;;;;;;0.75;0.70;;;;;;;6.40;100.00;101879.81;5040694;28;20024;-53
2023/05/24 03:41:28;;;;;;;2.38;0.70;;;;;;;6.34;100.00;101878.53;5040479;28;20053;-51
2023/05/24 03:43:54;;;;;;;1.85;0.80;;;;;;;6.27;100.00;101878.22;5038626;28;20080;-54
2023/05/24 03:46:19;;;;;;;4.35;1.00;;;;;;;6.30;100.00;101877.13;5042105;28;20724;-57
2023/05/24 03:48:45;;;;;;;1.85;0.82;;;;;;;6.28;100.00;101885.16;5039620;28;20448;-53
2023/05/24 03:51:10;;;;;;;3.00;0.47;;;;;;;6.30;100.00;101880.59;5033679;28;20033;-55
2023/05/24 03:53:35;;;;;;;1.50;0.60;;;;;;;6.31;100.00;101882.25;5037145;28;20036;-54
2023/05/24 03:56:01;;;;;;;9.43;0.75;;;;;;;6.28;100.00;101881.69;5039899;28;20017;-52
2023/05/24 03:58:26;;;;;;;5.70;1.60;;;;;;;6.24;100.00;101881.09;5041206;28;20508;-52
2023/05/24 04:00:51;;;;;;;2.78;0.88;;;;;;;6.29;100.00;101875.44;5038158;28;20029;-55
2023/05/24 04:03:18;;;;;;;3.95;1.08;;;;;;;6.29;100.00;101885.97;5033362;28;20032;-53
2023/05/24 04:05:44;;;;;;;3.05;1.23;;;;;;;6.28;100.00;101885.16;5036666;28;20483;-53
2023/05/24 04:08:09;;;;;;;2.78;0.90;;;;;;;6.31;100.00;101889.31;5035937;28;20094;-53
2023/05/24 04:10:35;;;;;;;3.35;0.98;;;;;;;6.29;100.00;101876.28;5038501;28;20591;-53
2023/05/24 04:13:00;;;;;;;1.50;0.68;;;;;;;6.36;100.00;101875.78;5038733;28;20460;-54
2023/05/24 04:15:26;;;;;;;2.00;0.73;;;;;;;6.41;100.00;101871.78;5041025;28;20037;-53
2023/05/24 04:17:54;;;;;;;6.40;1.92;;;;;;;6.43;100.00;101872.50;5040784;28;20083;-50
2023/05/24 04:20:24;;;;;;;4.18;1.98;;;;;;;6.48;100.00;101865.03;5038804;28;20060;-53
2023/05/24 04:22:52;;;;;;;3.75;0.55;;;;;;;6.49;100.00;101866.69;5039011;28;20093;-54
2023/05/24 04:25:19;;;;;;;3.22;0.82;;;;;;;6.49;100.00;101866.69;5041470;28;20033;-52
2023/05/24 04:27:47;;;;;;;6.15;1.30;;;;;;;6.49;100.00;101855.31;5043581;28;20020;-51
2023/05/24 04:30:14;;;;;;;3.67;2.17;;;;;;;6.48;100.00;101857.13;5042511;28;20037;-51
2023/05/24 04:32:40;;;;;;;2.72;1.08;;;;;;;6.41;100.00;101863.06;5043531;28;20033;-53
2023/05/24 04:35:07;;;;;;;2.03;1.13;;;;;;;6.44;100.00;101857.50;5039718;28;20039;-54
2023/05/24 04:37:32;;;;;;;3.80;1.35;;;;;;;6.42;100.00;101862.91;5044967;28;20036;-52
2023/05/24 04:39:57;;;;;;;4.28;1.27;;;;;;;6.43;100.00;101866.38;5040465;28;20029;-55
2023/05/24 04:42:23;;;;;;;3.92;1.15;;;;;;;6.45;100.00;101856.53;5041276;28;20033;-55
2023/05/24 04:44:48;;;;;;;1.90;1.75;;;;;;;6.52;100.00;101862.97;5040533;28;20083;-55
2023/05/24 04:47:14;;;;;;;4.10;0.88;;;;;;;6.58;100.00;101865.06;5041947;28;20025;-53
2023/05/24 04:49:39;;;;;;;13.10;1.27;;;;;;;6.63;100.00;101868.13;5043511;28;20385;-54
2023/05/24 04:52:05;;;;;;;4.32;1.02;;;;;;;6.64;100.00;101867.19;5039691;28;20036;-54
2023/05/24 04:54:32;;;;;;;2.80;1.45;;;;;;;6.64;100.00;101859.28;5038124;28;20135;-54
2023/05/24 04:56:57;;;;;;;1.20;1.05;;;;;;;6.69;100.00;101865.00;5039405;28;20170;-53
2023/05/24 04:59:23;;;;;;;1.17;0.22;;;;;;;6.76;100.00;101868.78;5039964;28;20488;-54
2023/05/24 05:01:48;;;;;;;0.80;0.63;;;;;;;6.78;100.00;101861.56;5040818;28;20044;-53
2023/05/24 05:04:14;;;;;;;1.05;0.65;;;;;;;6.78;100.00;101866.00;5041563;28;20029;-54
2023/05/24 05:06:42;;;;;;;2.30;0.88;;;;;;;6.81;100.00;101870.16;5040442;28;20040;-53
2023/05/24 05:09:08;;;;;;;5.68;1.30;;;;;;;6.88;100.00;101861.59;5039782;28;20507;-56
2023/05/24 05:11:34;;;;;;;2.05;0.93;;;;;;;6.96;100.00;101868.84;5041165;28;20059;-54
2023/05/24 05:13:59;;;;;;;6.63;0.57;;;;;;;7.07;100.00;101874.00;5041648;28;20029;-53
2023/05/24 05:16:24;;;;;;;1.20;1.08;;;;;;;7.14;100.00;101871.69;5041114;28;20222;-54
2023/05/24 05:18:50;;;;;;;8.93;2.80;;;;;;;7.21;100.00;101864.91;5024609;28;20040;-53
2023/05/24 05:21:15;;;;;;;4.18;0.95;;;;;;;7.31;100.00;101864.94;5042228;28;20066;-51
2023/05/24 05:23:40;;;;;;;6.35;1.42;;;;;;;7.39;100.00;101863.28;5043263;28;20029;-51
2023/05/24 05:26:08;;;;;;;9.82;1.40;;;;;;;7.46;100.00;101865.34;5040864;28;20031;-53
2023/05/24 05:28:34;;;;;;;4.00;1.80;;;;;;;7.54;100.00;101873.44;5041942;28;20398;-56
2023/05/24 05:30:59;;;;;;;4.85;1.02;;;;;;;7.64;100.00;101869.84;5039507;28;20224;-56
2023/05/24 05:33:25;;;;;;;5.65;3.08;;;;;;;7.78;100.00;101876.50;5041040;28;20037;-55
2023/05/24 05:35:50;;;;;;;1.98;0.93;;;;;;;7.86;100.00;101878.47;5041616;28;20380;-56
2023/05/24 05:38:15;;;;;;;5.30;2.22;;;;;;;8.05;100.00;101882.88;5044867;28;20110;-53
2023/05/24 05:40:41;;;;;;;10.07;1.17;;;;;;;8.29;100.00;101875.38;5040088;28;20541;-54
2023/05/24 05:43:08;;;;;;;5.45;2.22;;;;;;;8.44;100.00;101878.44;5036748;28;20577;-53
2023/05/24 05:45:33;;;;;;;8.73;2.45;;;;;;;8.64;100.00;101873.06;5039682;28;20033;-52
2023/05/24 05:47:58;;;;;;;3.80;1.92;;;;;;;8.89;100.00;101879.53;5042419;28;20399;-57
2023/05/24 05:50:24;;;;;;;8.32;1.38;;;;;;;9.09;100.00;101873.16;5041243;28;20044;-55
2023/05/24 05:52:49;;;;;;;8.18;2.22;;;;;;;9.31;100.00;101879.84;5042042;28;20417;-53
2023/05/24 05:55:14;;;;;;;8.60;1.88;;;;;;;9.50;100.00;101880.72;5018496;28;20101;-54
2023/05/24 05:57:40;;;;;;;3.65;1.35;;;;;;;9.83;100.00;101873.91;5042865;28;20029;-57
2023/05/24 06:00:06;;;;;;;12.00;2.17;;;;;;;10.07;100.00;101877.75;5036462;28;20273;-58
2023/05/24 06:02:31;;;;;;;13.93;4.10;;;;;;;10.12;100.00;101879.00;5042357;28;20420;-55
2023/05/24 06:04:56;;;;;;;5.10;1.60;;;;;;;10.30;100.00;101876.34;5041090;28;20649;-58
2023/05/24 06:07:22;;;;;;;9.05;2.45;;;;;;;10.51;100.00;101873.31;5036124;28;20033;-56
2023/05/24 06:09:47;;;;;;;8.68;3.67;;;;;;;10.65;100.00;101867.41;5040925;28;20025;-57
2023/05/24 06:12:12;;;;;;;4.75;1.40;;;;;;;10.67;100.00;101875.22;5037933;28;20068;-58
2023/05/24 06:14:38;;;;;;;16.85;3.65;;;;;;;10.67;100.00;101881.38;5041589;28;20028;-57
2023/05/24 06:17:06;;;;;;;9.93;3.22;;;;;;;10.78;100.00;101888.22;5042088;28;20047;-57
2023/05/24 06:19:32;;;;;;;5.50;2.15;;;;;;;10.93;100.00;101888.47;5040436;28;20036;-54
2023/05/24 06:22:00;;;;;;;13.30;1.90;;;;;;;11.03;100.00;101883.03;5041237;28;20029;-56
2023/05/24 06:24:27;;;;;;;10.07;2.35;;;;;;;11.14;100.00;101888.03;5038666;28;20439;-56
2023/05/24 06:26:53;;;;;;;11.60;3.03;;;;;;;11.16;100.00;101890.56;5035859;28;20472;-50
2023/05/24 06:29:19;;;;;;;9.38;1.92;;;;;;;11.33;100.00;101884.28;5041427;28;20094;-55
2023/05/24 06:31:46;;;;;;;6.57;3.13;;;;;;;11.47;100.00;101874.88;5036890;28;20041;-56
2023/05/24 06:34:12;;;;;;;7.70;2.65;;;;;;;11.54;100.00;101883.84;5038673;28;20024;-56
2023/05/24 06:36:41;;;;;;;9.57;2.15;;;;;;;11.65;100.00;101886.19;5037517;28;20036;-54
2023/05/24 06:39:09;;;;;;;11.35;3.10;;;;;;;11.77;100.00;101887.53;5036024;28;20056;-56
2023/05/24 06:41:36;;;;;;;11.93;2.45;;;;;;;11.93;100.00;101886.75;5037762;28;20608;-56
2023/05/24 06:44:01;;;;;;;8.25;2.25;;;;;;;12.04;100.00;101885.59;5040417;28;20048;-54
2023/05/24 06:46:27;;;;;;;6.50;1.60;;;;;;;12.14;100.00;101888.91;5042024;28;20052;-54
2023/05/24 06:48:52;;;;;;;13.10;2.45;;;;;;;12.08;100.00;101891.38;5038958;28;20028;-52
2023/05/24 06:51:17;;;;;;;6.60;2.15;;;;;;;12.15;100.00;101879.09;5037741;28;20403;-52
2023/05/24 06:53:43;;;;;;;9.48;2.53;;;;;;;12.36;100.00;101875.91;5039185;28;20117;-53
2023/05/24 06:56:09;;;;;;;6.22;2.00;;;;;;;12.51;100.00;101878.72;5036825;28;20064;-52
2023/05/24 06:58:35;;;;;;;10.18;3.25;;;;;;;12.62;100.00;101865.03;5041703;28;20040;-52
2023/05/24 07:01:01;;;;;;;6.85;3.42;;;;;;;12.67;100.00;101862.69;5042299;28;20029;-50
2023/05/24 07:03:27;;;;;;;14.80;2.45;;;;;;;12.76;100.00;101856.38;5038264;28;20065;-53
2023/05/24 07:05:52;;;;;;;11.23;2.17;;;;;;;12.98;100.00;101852.09;5039666;28;20449;-53
2023/05/24 07:08:17;;;;;;;9.25;2.63;;;;;;;13.11;100.00;101856.88;5042053;28;20162;-57
2023/05/24 07:10:43;;;;;;;9.25;1.80;;;;;;;13.09;100.00;101867.72;5036978;28;20468;-56
2023/05/24 07:13:12;;;;;;;6.90;2.10;;;;;;;13.20;100.00;101861.16;5036505;28;20318;-54
2023/05/24 07:15:40;;;;;;;7.50;2.22;;;;;;;13.19;100.00;101861.31;5032715;28;20029;-56
2023/05/24 07:18:05;;;;;;;4.90;1.70;;;;;;;13.24;100.00;101872.28;5035795;28;20060;-59
2023/05/24 07:20:31;;;;;;;7.43;2.38;;;;;;;13.40;100.00;101874.06;5041880;28;20102;-51
2023/05/24 07:22:57;;;;;;;7.70;2.15;;;;;;;13.53;100.00;101871.66;5039509;28;20470;-57
2023/05/24 07:25:23;;;;;;;4.35;1.52;;;;;;;13.66;100.00;101866.56;5033129;28;20440;-55
2023/05/24 07:27:49;;;;;;;8.35;1.67;;;;;;;13.80;100.00;101872.13;5035172;28;20043;-56
2023/05/24 07:30:15;;;;;;;5.40;3.13;;;;;;;13.96;100.00;101869.34;5036165;28;20253;-57
2023/05/24 07:32:40;;;;;;;8.70;2.10;;;;;;;14.15;100.00;101862.69;5037563;28;20111;-55
2023/05/24 07:35:06;;;;;;;11.45;2.50;;;;;;;14.29;100.00;101861.88;5031845;28;20129;-53
2023/05/24 07:37:31;;;;;;;7.18;2.42;;;;;;;14.36;100.00;101862.81;5036236;28;20072;-54
2023/05/24 07:39:57;;;;;;;5.82;1.38;;;;;;;14.55;100.00;101863.31;5041323;28;20025;-53
2023/05/24 07:42:22;;;;;;;7.95;2.03;;;;;;;14.66;100.00;101851.34;5039801;28;20033;-56
2023/05/24 07:44:48;;;;;;;7.70;2.47;;;;;;;14.81;100.00;101854.84;5039571;28;20489;-54
2023/05/24 07:47:13;;;;;;;5.55;1.23;;;;;;;14.96;100.00;101858.31;5030294;28;20064;-55
2023/05/24 07:49:38;;;;;;;7.35;3.00;;;;;;;15.14;100.00;101873.94;5033519;28;20196;-54
2023/05/24 07:52:05;;;;;;;10.68;1.80;;;;;;;15.41;100.00;101874.25;5030703;28;20540;-51
2023/05/24 07:54:30;;;;;;;5.10;1.67;;;;;;;15.49;100.00;101869.63;5042313;28;20037;-55
2023/05/24 07:56:56;;;;;;;8.40;1.58;;;;;;;15.53;100.00;101858.53;5038560;28;20037;-55
2023/05/24 07:59:22;;;;;;;6.18;1.38;;;;;;;15.87;100.00;101863.22;5043126;28;20071;-52
2023/05/24 08:01:48;;;;;;;11.82;1.33;;;;;;;16.29;100.00;101856.97;5042663;28;20541;-53
2023/05/24 08:04:13;;;;;;;5.40;1.90;;;;;;;16.51;100.00;101863.06;5023293;28;20120;-55
2023/05/24 08:06:39;;;;;;;6.97;1.63;;;;;;;16.20;100.00;101865.34;5027147;28;20496;-52
2023/05/24 08:09:04;;;;;;;4.45;1.60;;;;;;;15.97;100.00;101865.56;5031196;28;20529;-51
2023/05/24 08:11:30;;;;;;;6.15;2.03;;;;;;;15.93;100.00;101865.13;5024444;28;20074;-53
2023/05/24 08:13:55;;;;;;;11.35;2.30;;;;;;;16.05;100.00;101857.41;5029764;28;20393;-56
2023/05/24 08:16:21;;;;;;;6.63;1.33;;;;;;;16.38;100.00;101852.28;5031810;28;20775;-54
2023/05/24 08:18:46;;;;;;;4.97;1.70;;;;;;;16.54;100.00;101856.50;5043781;28;20029;-55
2023/05/24 08:21:11;;;;;;;3.03;1.02;;;;;;;16.46;100.00;101848.63;5041683;28;20143;-55
2023/05/24 08:23:37;;;;;;;9.75;2.22;;;;;;;16.41;100.00;101851.06;5050616;28;20539;-52
2023/05/24 08:26:02;;;;;;;5.63;1.20;;;;;;;16.48;100.00;101851.94;5045114;28;20767;-53
2023/05/24 08:28:28;;;;;;;7.90;2.83;;;;;;;16.33;100.00;101846.69;5040327;28;20032;-56
2023/05/24 08:30:54;;;;;;;4.43;2.28;;;;;;;16.51;100.00;101848.88;5038437;28;20073;-54
2023/05/24 08:33:21;;;;;;;7.32;2.30;;;;;;;16.56;100.00;101841.88;5046084;28;20033;-53
2023/05/24 08:35:47;;;;;;;9.00;1.52;;;;;;;16.75;100.00;101836.84;5046021;28;20060;-57
2023/05/24 08:38:12;;;;;;;6.93;2.13;;;;;;;17.17;100.00;101841.16;5043401;28;20132;-57
2023/05/24 08:40:38;;;;;;;7.43;1.50;;;;;;;17.25;100.00;101829.44;5042504;28;20033;-56
2023/05/24 08:43:10;;;;;;;13.98;3.10;;;;;;;17.43;100.00;101823.50;5042640;28;20118;-56
2023/05/24 08:45:37;;;;;;;9.00;2.40;;;;;;;17.46;100.00;101823.09;5042707;28;20075;-57
2023/05/24 08:48:04;;;;;;;5.28;1.52;;;;;;;17.24;100.00;101819.72;5043370;28;20371;-56
2023/05/24 08:50:31;;;;;;;5.00;2.35;;;;;;;17.44;100.00;101820.59;5043821;28;20033;-54
2023/05/24 08:52:58;;;;;;;3.90;1.38;;;;;;;17.47;100.00;101816.69;5039985;28;20470;-53
2023/05/24 08:55:23;;;;;;;4.65;1.67;;;;;;;17.10;100.00;101813.50;5047655;28;20033;-53
2023/05/24 08:57:50;;;;;;;6.90;1.50;;;;;;;17.31;100.00;101811.72;5037437;28;20033;-58
2023/05/24 09:00:16;;;;;;;5.43;1.35;;;;;;;17.34;100.00;101808.63;5042259;28;20534;-55
2023/05/24 09:02:44;;;;;;;7.25;1.98;;;;;;;17.37;100.00;101808.22;5048317;28;20037;-53
2023/05/24 09:05:11;;;;;;;2.30;1.23;;;;;;;17.76;100.00;101817.31;5040737;28;20711;-55
2023/05/24 09:07:37;;;;;;;6.80;1.50;;;;;;;18.09;100.00;101817.34;5039727;28;20033;-53
2023/05/24 09:10:04;;;;;;;3.90;1.77;;;;;;;18.11;100.00;101801.03;5043181;28;20130;-53
2023/05/24 09:12:35;;;;;;;4.32;1.23;;;;;;;18.30;100.00;101811.75;5043847;28;20033;-57
2023/05/24 09:15:00;;;;;;;5.75;1.77;;;;;;;18.14;100.00;101814.84;5045115;28;20219;-52
2023/05/24 09:17:26;;;;;;;2.88;1.30;;;;;;;18.27;100.00;101805.94;5043940;28;20104;-56
2023/05/24 09:19:52;;;;;;;7.38;1.55;;;;;;;18.19;100.00;101800.81;5035740;28;20045;-51
2023/05/24 09:22:19;;;;;;;3.83;0.65;;;;;;;18.24;100.00;101793.78;5039287;28;20039;-52
2023/05/24 09:24:51;;;;;;;8.82;2.65;;;;;;;18.17;100.00;101801.00;5045478;28;20029;-62
2023/05/24 09:27:21;;;;;;;7.85;2.97;;;;;;;18.07;100.00;101801.47;5044187;28;20037;-57
2023/05/24 09:29:53;;;;;;;9.10;1.33;;;;;;;18.63;100.00;101791.19;5046156;28;20432;-55
2023/05/24 09:32:22;;;;;;;7.15;1.65;;;;;;;18.39;100.00;101803.47;5034738;28;20611;-55
2023/05/24 09:34:50;;;;;;;7.80;2.17;;;;;;;17.86;100.00;101801.66;5041926;28;20033;-58
2023/05/24 09:37:18;;;;;;;1.92;0.80;;;;;;;18.29;100.00;101795.84;5041703;28;20039;-54
2023/05/24 09:39:46;;;;;;;5.47;0.90;;;;;;;18.63;100.00;101802.75;5037508;28;20109;-56
2023/05/24 09:42:22;;;;;;;5.22;1.33;;;;;;;18.13;100.00;101815.09;5039156;28;20605;-54
2023/05/24 09:44:57;;;;;;;5.68;1.08;;;;;;;17.73;100.00;101807.00;5041219;28;20036;-52
2023/05/24 09:47:28;;;;;;;10.00;1.33;;;;;;;18.18;100.00;101799.16;5023620;28;20034;-56
2023/05/24 09:49:53;;;;;;;9.77;2.20;;;;;;;18.56;100.00;101801.97;5039923;28;20112;-57
2023/05/24 09:52:20;;;;;;;5.93;1.50;;;;;;;18.46;100.00;101810.47;5037115;28;20064;-55
2023/05/24 09:54:46;;;;;;;5.13;2.45;;;;;;;18.22;100.00;101803.88;5040203;28;20032;-54
2023/05/24 09:57:14;;;;;;;6.93;1.60;;;;;;;18.62;100.00;101802.97;5038134;28;20140;-54
2023/05/24 09:59:41;;;;;;;6.70;2.22;;;;;;;18.64;100.00;101804.41;5045893;28;20040;-53
2023/05/24 10:02:11;;;;;;;4.97;1.15;;;;;;;18.40;100.00;101808.59;5044634;28;20920;-53
2023/05/24 10:04:40;;;;;;;14.32;2.25;;;;;;;18.28;100.00;101805.75;5040107;28;20052;-54
2023/05/24 10:07:06;;;;;;;8.80;1.25;;;;;;;18.17;100.00;101800.19;5039900;28;20115;-54
2023/05/24 10:09:33;;;;;;;5.38;1.73;;;;;;;18.53;100.00;101795.16;5036461;28;20064;-52
2023/05/24 10:12:04;;;;;;;2.75;1.45;;;;;;;18.96;100.00;101789.19;5034854;28;20087;-52
2023/05/24 10:14:37;;;;;;;4.63;1.75;;;;;;;19.12;100.00;101790.56;5036722;28;20034;-56
2023/05/24 10:17:04;;;;;;;3.33;1.10;;;;;;;18.55;100.00;101783.38;5041346;28;20029;-51
2023/05/24 10:19:34;;;;;;;7.47;2.15;;;;;;;18.47;100.00;101790.63;5039055;28;20385;-52
2023/05/24 10:22:01;;;;;;;4.88;1.67;;;;;;;18.96;100.00;101789.19;5037305;28;20409;-54
2023/05/24 10:24:34;;;;;;;5.38;1.65;;;;;;;19.51;100.00;101788.63;5040819;28;20051;-54
2023/05/24 10:27:08;;;;;;;5.57;2.25;;;;;;;19.35;100.00;101791.88;5035429;28;20428;-55
2023/05/24 10:29:45;;;;;;;2.75;0.80;;;;;;;19.50;100.00;101778.94;5048641;28;20032;-58
2023/05/24 10:32:14;;;;;;;5.07;1.15;;;;;;;19.75;100.00;101776.28;5041523;28;20039;-54
2023/05/24 10:34:41;;;;;;;5.22;2.30;;;;;;;19.57;100.00;101787.78;5042023;28;20032;-53
2023/05/24 10:37:08;;;;;;;4.72;1.73;;;;;;;19.17;100.00;101781.84;5039307;28;20033;-60
2023/05/24 10:39:34;;;;;;;7.05;2.08;;;;;;;19.11;100.00;101782.72;5046176;28;20518;-54
2023/05/24 10:42:06;;;;;;;4.47;1.92;;;;;;;19.04;100.00;101777.38;5040422;28;20047;-48
2023/05/24 10:44:32;;;;;;;4.68;1.85;;;;;;;19.10;100.00;101770.31;5039435;28;20047;-58
2023/05/24 10:47:11;;;;;;;7.10;1.40;;;;;;;19.26;100.00;101772.50;5040095;28;20413;-55
2023/05/24 10:49:38;;;;;;;7.10;1.40;;;;;;;19.30;100.00;101779.06;5041440;28;20037;-64
2023/05/24 10:52:08;;;;;;;6.95;2.35;;;;;;;19.30;100.00;101780.94;5040827;28;20094;-59
2023/05/24 10:54:37;;;;;;;3.25;1.25;;;;;;;19.51;100.00;101771.66;5042165;28;20482;-54
2023/05/24 10:57:03;;;;;;;6.03;1.38;;;;;;;19.66;100.00;101769.47;5040823;28;20029;-56
2023/05/24 10:59:37;;;;;;;10.30;2.65;;;;;;;19.90;100.00;101778.59;5044130;28;20117;-50
2023/05/24 11:02:08;;;;;;;6.90;1.40;;;;;;;19.67;100.00;101776.56;5040335;28;20032;-56
2023/05/24 11:04:37;;;;;;;4.13;1.80;;;;;;;20.17;100.00;101773.78;5039919;28;20489;-55
2023/05/24 11:07:04;;;;;;;4.50;1.65;;;;;;;20.44;100.00;101777.00;5041006;28;20508;-58
2023/05/24 11:09:34;;;;;;;5.18;1.83;;;;;;;20.51;100.00;101776.94;5038480;28;20083;-55
2023/05/24 11:12:07;;;;;;;6.18;1.70;;;;;;;19.70;100.00;101770.72;5040147;28;20517;-54
2023/05/24 11:14:36;;;;;;;4.70;1.40;;;;;;;20.02;100.00;101765.25;5039893;28;20096;-55
2023/05/24 11:17:02;;;;;;;5.65;1.58;;;;;;;20.78;100.00;101752.38;5041787;28;20025;-55
2023/05/24 11:19:36;;;;;;;5.45;1.40;;;;;;;21.11;100.00;101754.59;5041341;28;20499;-55
2023/05/24 11:22:04;;;;;;;4.18;1.10;;;;;;;20.92;100.00;101756.53;5043336;28;20104;-50